EDT,Max TemperatureF,Mean TemperatureF,Min TemperatureF,Max Dew PointF,MeanDew PointF,Min DewpointF,Max Humidity, Mean Humidity, Min Humidity, Max Sea Level PressureIn, Mean Sea Level PressureIn, Min Sea Level PressureIn, Max VisibilityMiles, Mean VisibilityMiles, Min VisibilityMiles, Max Wind SpeedMPH, Mean Wind SpeedMPH, Max Gust SpeedMPH,PrecipitationIn, CloudCover, Events, WindDirDegrees
2012-3-1,75,63,51,59,42,21,93,54,14,29.87,29.76,29.70,10,10,10,26,11,33,T,1,Rain,249
2012-3-2,54,48,41,49,44,28,100,71,41,30.01,29.87,29.68,10,7,1,12,5,17,0.10,6,Rain-Thunderstorm,62
2012-3-3,59,52,45,50,43,24,100,64,28,29.73,29.67,29.57,10,7,1,15,5,21,0.36,6,Rain,258
2012-3-4,51,40,29,37,22,14,71,50,29,29.99,29.79,29.66,10,10,10,22,9,30,0.00,4,,301
2012-3-5,48,38,27,31,21,14,84,58,31,30.49,30.14,29.89,10,10,10,31,10,41,T,3,Rain,291
2012-3-6,54,38,22,24,19,15,88,56,24,30.67,30.59,30.51,10,10,10,9,3,15,0.00,0,,195
2012-3-7,66,48,29,46,35,24,85,61,37,30.64,30.53,30.40,10,10,10,22,6,28,0.00,2,,202
2012-3-8,70,61,52,54,50,47,89,67,45,30.41,30.25,30.08,10,10,10,25,9,32,T,6,Rain,207
2012-3-9,60,52,44,57,41,19,100,62,24,30.33,30.15,30.05,10,9,3,22,8,32,0.22,4,Rain,291
2012-3-10,55,42,28,27,21,17,75,50,24,30.53,30.46,30.34,10,10,10,14,3,,0.00,0,,21
2012-3-11,63,45,26,29,25,22,92,58,23,30.58,30.49,30.42,10,10,10,13,3,21,0.00,0,,204
2012-3-12,70,52,34,50,40,22,70,52,34,30.43,30.31,30.20,10,10,10,18,7,26,T,2,,211
2012-3-13,78,65,51,56,52,49,93,67,40,30.21,30.14,30.04,10,10,9,17,7,22,0.03,4,Rain,214
2012-3-14,82,66,50,55,49,42,100,63,26,30.21,30.16,30.12,10,9,5,13,2,16,0.00,0,,233
2012-3-15,78,63,48,53,49,45,100,68,35,30.25,30.19,30.13,10,10,9,18,5,24,0.00,1,,252
2012-3-16,77,63,49,61,53,49,100,68,36,30.20,30.15,30.07,10,10,6,13,4,24,0.10,3,Rain,240
2012-3-17,77,65,52,58,54,52,100,72,43,30.25,30.19,30.14,10,4,0,10,3,,0.00,2,Fog,154
2012-3-18,67,60,53,59,56,53,100,87,73,30.34,30.27,30.19,10,7,0,14,2,,0.00,6,Fog,68
2012-3-19,79,65,50,59,54,50,100,71,42,30.28,30.20,30.09,10,4,0,9,2,,0.00,4,Fog,209
2012-3-20,83,69,55,61,58,55,100,72,43,30.25,30.16,30.08,10,8,2,21,4,33,0.90,4,Rain-Thunderstorm,212
2012-3-21,76,65,53,61,57,53,100,77,54,30.30,30.25,30.17,10,6,0,8,2,12,0.00,3,Fog,95
2012-3-22,77,67,56,63,58,55,100,75,50,30.27,30.21,30.11,10,5,0,15,5,21,0.00,3,Fog,210
2012-3-23,82,69,55,62,58,54,100,73,45,30.11,30.02,29.93,10,10,6,20,6,24,0.12,2,Rain-Thunderstorm,234
2012-3-24,70,65,60,63,60,54,100,91,81,29.96,29.88,29.73,10,7,1,10,1,38,0.88,7,Rain-Thunderstorm,96
2012-3-25,63,59,54,56,54,52,100,89,78,29.80,29.76,29.71,10,9,2,15,5,20,0.07,8,Rain,355
2012-3-26,73,59,45,55,44,24,100,63,25,30.13,29.91,29.80,10,10,10,23,10,30,0.00,1,,338
2012-3-27,61,49,36,29,22,17,59,39,19,30.35,30.26,30.16,10,10,10,14,5,18,0.00,0,,73
2012-3-28,78,60,41,57,47,26,84,63,42,30.21,29.98,29.80,10,10,10,23,11,31,T,0,Rain-Thunderstorm,229
2012-3-29,78,64,49,56,40,28,93,55,16,29.94,29.85,29.79,10,10,10,24,8,39,0.00,0,,296
2012-3-30,73,59,45,53,46,39,86,64,41,30.06,29.95,29.83,10,10,10,12,4,22,0.00,0,,70
2012-3-31,74,65,56,63,58,48,100,78,56,29.82,29.76,29.67,10,9,2,16,6,22,0.35,5,Rain,228